createdAt,value
2023-04-08T00:01:19.607Z,3.20
2023-04-08T00:03:46.717Z,3.18
2023-04-08T00:06:13.735Z,3.16
2023-04-08T00:08:40.765Z,3.15
2023-04-08T00:11:07.646Z,3.14
2023-04-08T00:13:34.658Z,3.10
2023-04-08T00:16:01.722Z,3.12
2023-04-08T00:18:29.438Z,3.10
2023-04-08T00:20:57.396Z,3.10
2023-04-08T00:23:24.424Z,3.09
2023-04-08T00:25:51.518Z,3.10
2023-04-08T00:28:18.462Z,3.08
2023-04-08T00:30:45.841Z,3.03
2023-04-08T00:33:12.877Z,2.98
2023-04-08T00:35:39.875Z,2.99
2023-04-08T00:38:08.154Z,2.95
2023-04-08T00:40:35.278Z,2.90
2023-04-08T00:43:02.263Z,2.88
2023-04-08T00:45:29.355Z,2.96
2023-04-08T00:47:56.827Z,3.00
2023-04-08T00:50:24.368Z,2.95
2023-04-08T00:52:51.356Z,2.88
2023-04-08T00:55:18.302Z,2.82
2023-04-08T00:57:46.097Z,2.81
2023-04-08T01:00:13.979Z,2.82
2023-04-08T01:02:59.378Z,2.79
2023-04-08T01:05:38.943Z,2.79
2023-04-08T01:08:06.651Z,2.74
2023-04-08T01:10:34.652Z,2.76
2023-04-08T01:13:06.508Z,2.79
2023-04-08T01:15:33.619Z,2.78
2023-04-08T01:18:00.741Z,2.82
2023-04-08T01:20:28.922Z,2.84
2023-04-08T01:23:00.915Z,2.80
2023-04-08T01:25:32.295Z,2.78
2023-04-08T01:28:00.794Z,2.74
2023-04-08T01:30:28.610Z,2.71
2023-04-08T01:32:57.619Z,2.69
2023-04-08T01:35:24.641Z,2.68
2023-04-08T01:37:51.712Z,2.64
2023-04-08T01:40:19.096Z,2.59
2023-04-08T01:42:49.801Z,2.59
2023-04-08T01:45:17.103Z,2.64
2023-04-08T01:47:47.498Z,2.67
2023-04-08T01:50:15.643Z,2.61
2023-04-08T01:52:46.312Z,2.61
2023-04-08T01:55:14.338Z,2.54
2023-04-08T01:57:42.104Z,2.56
2023-04-08T02:00:10.322Z,2.54
2023-04-08T02:02:47.670Z,2.56
2023-04-08T02:05:15.103Z,2.56
2023-04-08T02:07:42.039Z,2.56
2023-04-08T02:10:09.852Z,2.56
2023-04-08T02:12:36.774Z,2.52
2023-04-08T02:15:09.085Z,2.57
2023-04-08T02:17:45.823Z,2.62
2023-04-08T02:20:24.394Z,2.64
2023-04-08T02:23:11.091Z,2.65
2023-04-08T02:25:39.034Z,2.62
2023-04-08T02:28:07.140Z,2.64
2023-04-08T02:30:34.265Z,2.67
2023-04-08T02:33:01.607Z,2.68
2023-04-08T02:35:28.556Z,2.64
2023-04-08T02:37:55.546Z,2.61
2023-04-08T02:40:29.712Z,2.57
2023-04-08T02:42:56.825Z,2.55
2023-04-08T02:45:28.228Z,2.56
2023-04-08T02:47:55.536Z,2.53
2023-04-08T02:50:22.704Z,2.48
2023-04-08T02:52:49.650Z,2.43
2023-04-08T02:55:19.819Z,2.40
2023-04-08T02:57:47.501Z,2.45
2023-04-08T03:00:15.053Z,2.48
2023-04-08T03:02:42.424Z,2.49
2023-04-08T03:05:12.631Z,2.46
2023-04-08T03:07:39.657Z,2.53
2023-04-08T03:10:07.279Z,2.61
2023-04-08T03:12:34.326Z,2.57
2023-04-08T03:15:01.917Z,2.58
2023-04-08T03:17:35.693Z,2.66
2023-04-08T03:20:05.037Z,2.77
2023-04-08T03:22:32.119Z,2.75
2023-04-08T03:24:59.104Z,2.81
2023-04-08T03:27:26.297Z,2.77
2023-04-08T03:29:53.418Z,2.71
2023-04-08T03:32:20.681Z,2.69
2023-04-08T03:34:49.730Z,2.70
2023-04-08T03:37:17.601Z,2.65
2023-04-08T03:39:44.488Z,2.59
2023-04-08T03:42:11.465Z,2.59
2023-04-08T03:44:38.458Z,2.58
2023-04-08T03:47:05.449Z,2.57
2023-04-08T03:49:32.364Z,2.64
2023-04-08T03:51:59.441Z,2.62
2023-04-08T03:54:26.401Z,2.70
2023-04-08T03:56:53.374Z,2.71
2023-04-08T03:59:20.495Z,2.76
2023-04-08T04:01:47.799Z,2.79
2023-04-08T04:04:15.069Z,2.78
2023-04-08T04:06:42.252Z,2.78
2023-04-08T04:09:09.302Z,2.85
2023-04-08T04:11:36.214Z,2.97
2023-04-08T04:14:03.616Z,3.06
2023-04-08T04:16:32.803Z,3.17
2023-04-08T04:19:00.390Z,3.29
2023-04-08T04:21:27.619Z,3.44
2023-04-08T04:23:54.567Z,3.52
2023-04-08T04:26:21.577Z,3.62
2023-04-08T04:28:49.252Z,3.75
2023-04-08T04:31:21.782Z,3.83
2023-04-08T04:33:49.219Z,3.83
2023-04-08T04:36:16.215Z,3.91
2023-04-08T04:38:43.571Z,4.04
2023-04-08T04:41:10.623Z,4.21
2023-04-08T04:43:37.951Z,4.35
2023-04-08T04:46:07.455Z,4.48
2023-04-08T04:48:35.357Z,4.67
2023-04-08T04:51:07.507Z,4.85
2023-04-08T04:53:34.582Z,5.02
2023-04-08T04:56:02.072Z,5.20
2023-04-08T04:58:29.727Z,5.35
2023-04-08T05:00:56.936Z,5.54
2023-04-08T05:03:24.087Z,5.67
2023-04-08T05:05:52.757Z,5.79
2023-04-08T05:08:20.156Z,5.89
2023-04-08T05:10:47.200Z,6.06
2023-04-08T05:13:14.129Z,6.28
2023-04-08T05:15:41.194Z,6.42
2023-04-08T05:18:08.319Z,6.51
2023-04-08T05:20:35.505Z,6.63
2023-04-08T05:23:02.500Z,6.75
2023-04-08T05:25:30.724Z,6.82
2023-04-08T05:27:57.755Z,6.96
2023-04-08T05:30:24.777Z,7.05
2023-04-08T05:32:51.925Z,7.10
2023-04-08T05:35:18.988Z,7.11
2023-04-08T05:37:45.887Z,7.14
2023-04-08T05:40:12.880Z,7.23
2023-04-08T05:42:39.808Z,7.37
2023-04-08T05:45:07.347Z,7.47
2023-04-08T05:47:34.350Z,7.59
2023-04-08T05:50:01.355Z,7.72
2023-04-08T05:52:28.485Z,7.93
2023-04-08T05:54:55.536Z,8.11
2023-04-08T05:57:22.364Z,8.25
2023-04-08T05:59:49.320Z,8.39
2023-04-08T06:02:16.351Z,8.49
2023-04-08T06:04:43.640Z,8.58
2023-04-08T06:07:11.076Z,8.73
2023-04-08T06:09:38.191Z,8.94
2023-04-08T06:12:05.471Z,9.08
2023-04-08T06:14:32.673Z,9.21
2023-04-08T06:16:59.881Z,9.29
2023-04-08T06:19:26.984Z,9.24
2023-04-08T06:21:58.836Z,9.44
2023-04-08T06:24:27.492Z,9.69
2023-04-08T06:26:54.461Z,9.86
2023-04-08T06:29:24.437Z,10.05
2023-04-08T06:31:51.607Z,10.18
2023-04-08T06:34:18.710Z,10.30
2023-04-08T06:36:45.773Z,10.39
2023-04-08T06:39:13.124Z,10.52
2023-04-08T06:41:40.151Z,10.61
2023-04-08T06:44:19.825Z,10.62
2023-04-08T06:46:46.944Z,10.72
2023-04-08T06:49:13.993Z,10.77
2023-04-08T06:51:41.002Z,10.93
2023-04-08T06:54:10.163Z,11.12
2023-04-08T06:56:37.578Z,11.26
2023-04-08T06:59:07.158Z,11.36
2023-04-08T07:01:34.441Z,11.50
2023-04-08T07:04:02.572Z,11.53
2023-04-08T07:06:29.573Z,11.59
2023-04-08T07:08:56.486Z,11.66
2023-04-08T07:11:23.456Z,11.69
2023-04-08T07:13:50.837Z,11.87
2023-04-08T07:16:17.877Z,12.00
2023-04-08T07:18:44.967Z,12.01
2023-04-08T07:21:12.736Z,12.12
2023-04-08T07:23:39.745Z,12.18
2023-04-08T07:26:06.785Z,12.28
2023-04-08T07:28:33.705Z,12.53
2023-04-08T07:31:10.546Z,12.76
2023-04-08T07:33:37.399Z,12.90
2023-04-08T07:36:04.467Z,13.00
2023-04-08T07:38:31.690Z,13.13
2023-04-08T07:40:58.672Z,13.25
2023-04-08T07:43:25.742Z,13.37
2023-04-08T07:45:52.905Z,13.38
2023-04-08T07:48:19.890Z,13.33
2023-04-08T07:51:09.255Z,13.36
2023-04-08T07:53:34.576Z,13.40
2023-04-08T07:56:01.691Z,13.56
2023-04-08T07:58:28.898Z,13.68
2023-04-08T08:00:57.707Z,13.73
2023-04-08T08:03:25.719Z,13.65
2023-04-08T08:05:54.205Z,13.56
2023-04-08T08:08:21.386Z,13.42
2023-04-08T08:10:48.218Z,13.36
2023-04-08T08:13:17.340Z,13.39
2023-04-08T08:15:44.401Z,13.37
2023-04-08T08:18:11.581Z,13.34
2023-04-08T08:20:38.688Z,13.26
2023-04-08T08:23:05.670Z,13.13
2023-04-08T08:25:32.578Z,13.09
2023-04-08T08:27:59.454Z,13.04
2023-04-08T08:30:27.130Z,13.02
2023-04-08T08:32:54.252Z,13.11
2023-04-08T08:35:21.211Z,13.20
2023-04-08T08:37:48.287Z,13.35
2023-04-08T08:40:15.943Z,13.41
2023-04-08T08:42:43.087Z,13.47
2023-04-08T08:45:10.449Z,13.48
2023-04-08T08:47:37.375Z,13.44
2023-04-08T08:50:05.205Z,13.53
2023-04-08T08:52:32.255Z,13.57
2023-04-08T08:54:59.431Z,13.64
2023-04-08T08:57:27.217Z,13.59
2023-04-08T08:59:54.356Z,13.44
2023-04-08T09:02:29.030Z,13.32
2023-04-08T09:04:58.280Z,13.20
2023-04-08T09:07:26.859Z,13.14
2023-04-08T09:09:54.556Z,13.09
2023-04-08T09:12:21.628Z,13.14
2023-04-08T09:14:48.644Z,13.10
2023-04-08T09:17:16.397Z,13.03
2023-04-08T09:20:12.251Z,13.01
2023-04-08T09:23:02.707Z,13.04
2023-04-08T09:25:32.269Z,13.12
2023-04-08T09:27:59.706Z,13.17
2023-04-08T09:30:27.549Z,13.24
2023-04-08T09:32:56.524Z,13.36
2023-04-08T09:35:24.160Z,13.51
2023-04-08T09:37:51.315Z,13.70
2023-04-08T09:40:18.447Z,13.88
2023-04-08T09:42:48.762Z,14.00
2023-04-08T09:45:16.261Z,14.14
2023-04-08T09:47:50.561Z,14.32
2023-04-08T09:50:17.626Z,14.48
2023-04-08T09:52:45.642Z,14.43
2023-04-08T09:55:13.350Z,14.39
2023-04-08T09:58:02.271Z,14.45
2023-04-08T10:00:32.537Z,14.57
2023-04-08T10:03:08.387Z,14.61
2023-04-08T10:05:39.744Z,14.60
2023-04-08T10:08:07.100Z,14.45
2023-04-08T10:10:39.629Z,14.45
2023-04-08T10:13:07.193Z,14.49
2023-04-08T10:15:34.900Z,14.54
2023-04-08T10:18:07.943Z,14.62
2023-04-08T10:20:35.165Z,14.64
2023-04-08T10:23:02.710Z,14.66
2023-04-08T10:25:32.729Z,14.62
2023-04-08T10:28:00.738Z,14.44
2023-04-08T10:30:27.734Z,14.39
2023-04-08T10:32:56.951Z,14.41
2023-04-08T10:35:30.539Z,14.37
2023-04-08T10:37:58.608Z,14.34
2023-04-08T10:40:25.836Z,14.36
2023-04-08T10:42:58.605Z,14.37
2023-04-08T10:45:25.669Z,14.35
2023-04-08T10:47:52.657Z,14.26
2023-04-08T10:50:20.125Z,14.31
2023-04-08T10:52:50.976Z,14.36
2023-04-08T10:55:27.448Z,14.42
2023-04-08T10:57:55.860Z,14.42
2023-04-08T11:00:38.291Z,14.51
2023-04-08T11:03:06.711Z,14.63
2023-04-08T11:05:34.517Z,14.72
2023-04-08T11:08:01.666Z,14.83
2023-04-08T11:10:32.082Z,14.81
2023-04-08T11:12:59.032Z,14.87
2023-04-08T11:15:26.340Z,14.85
2023-04-08T11:17:56.633Z,14.99
2023-04-08T11:20:23.699Z,14.89
2023-04-08T11:22:50.829Z,14.87
2023-04-08T11:25:17.752Z,14.99
2023-04-08T11:27:45.113Z,15.01
2023-04-08T11:30:12.320Z,15.11
2023-04-08T11:32:39.295Z,15.26
2023-04-08T11:35:06.468Z,15.23
2023-04-08T11:37:40.500Z,15.16
2023-04-08T11:40:11.689Z,15.22
2023-04-08T11:42:39.989Z,15.27
2023-04-08T11:45:11.098Z,15.41
2023-04-08T11:47:38.088Z,15.50
2023-04-08T11:50:05.461Z,15.59
2023-04-08T11:52:48.652Z,15.55
2023-04-08T11:55:25.533Z,15.52
2023-04-08T11:57:52.876Z,15.44
2023-04-08T12:00:20.352Z,15.42
2023-04-08T12:02:48.172Z,15.42
2023-04-08T12:05:16.148Z,15.37
2023-04-08T12:07:43.406Z,15.30
2023-04-08T12:10:11.491Z,15.19
2023-04-08T12:12:39.131Z,15.23
2023-04-08T12:15:06.911Z,15.29
2023-04-08T12:17:34.043Z,15.27
2023-04-08T12:20:01.646Z,15.22
2023-04-08T12:22:30.384Z,15.22
2023-04-08T12:24:59.238Z,15.19
2023-04-08T12:27:26.505Z,15.16
2023-04-08T12:29:53.630Z,15.04
2023-04-08T12:32:20.732Z,15.06
2023-04-08T12:34:47.744Z,15.06
2023-04-08T12:37:14.649Z,15.19
2023-04-08T12:39:42.080Z,15.15
2023-04-08T12:42:09.247Z,15.00
2023-04-08T12:44:36.219Z,14.98
2023-04-08T12:47:03.207Z,14.98
2023-04-08T12:49:30.910Z,15.01
2023-04-08T12:52:01.425Z,15.09
2023-04-08T12:54:28.561Z,15.01
2023-04-08T12:56:57.071Z,14.95
2023-04-08T12:59:24.150Z,14.85
2023-04-08T13:01:54.291Z,14.74
2023-04-08T13:04:21.528Z,14.80
2023-04-08T13:06:48.587Z,14.77
2023-04-08T13:09:15.673Z,14.80
2023-04-08T13:11:42.524Z,14.76
2023-04-08T13:14:09.466Z,14.86
2023-04-08T13:16:37.300Z,14.87
2023-04-08T13:19:04.261Z,14.72
2023-04-08T13:21:31.743Z,14.64
2023-04-08T13:23:58.699Z,14.53
2023-04-08T13:26:26.672Z,14.46
2023-04-08T13:28:57.345Z,14.42
2023-04-08T13:31:25.539Z,14.34
2023-04-08T13:33:54.569Z,14.20
2023-04-08T13:36:23.411Z,14.14
2023-04-08T13:38:50.658Z,13.97
2023-04-08T13:41:17.917Z,13.88
2023-04-08T13:43:44.879Z,13.78
2023-04-08T13:46:11.961Z,13.57
2023-04-08T13:48:38.880Z,13.51
2023-04-08T13:51:05.848Z,13.42
2023-04-08T13:53:32.830Z,13.33
2023-04-08T13:55:59.877Z,13.21
2023-04-08T13:58:27.235Z,13.15
2023-04-08T14:00:54.381Z,13.14
2023-04-08T14:03:21.556Z,13.07
2023-04-08T14:05:49.121Z,13.08
2023-04-08T14:08:16.163Z,13.10
2023-04-08T14:10:43.035Z,13.06
2023-04-08T14:13:10.088Z,13.05
2023-04-08T14:15:37.055Z,12.97
2023-04-08T14:18:04.070Z,12.87
2023-04-08T14:20:31.319Z,12.78
2023-04-08T14:22:58.306Z,12.64
2023-04-08T14:25:25.843Z,12.54
2023-04-08T14:27:58.465Z,12.47
2023-04-08T14:30:27.244Z,12.42
2023-04-08T14:32:54.955Z,12.31
2023-04-08T14:35:22.118Z,12.27
2023-04-08T14:37:49.082Z,12.21
2023-04-08T14:40:16.052Z,12.14
2023-04-08T14:42:44.548Z,12.08
2023-04-08T14:45:11.602Z,12.05
2023-04-08T14:47:38.630Z,11.99
2023-04-08T14:50:06.306Z,11.91
2023-04-08T14:52:33.222Z,11.87
2023-04-08T14:55:00.513Z,11.81
2023-04-08T14:57:27.451Z,11.77
2023-04-08T14:59:54.522Z,11.71
2023-04-08T15:02:21.548Z,11.67
2023-04-08T15:04:48.497Z,11.62
2023-04-08T15:07:15.833Z,11.55
2023-04-08T15:09:42.721Z,11.49
2023-04-08T15:12:09.639Z,11.44
2023-04-08T15:14:36.656Z,11.42
2023-04-08T15:17:03.699Z,11.35
2023-04-08T15:19:30.750Z,11.29
2023-04-08T15:21:57.784Z,11.24
2023-04-08T15:24:24.756Z,11.15
2023-04-08T15:26:51.776Z,11.07
2023-04-08T15:29:18.617Z,11.00
2023-04-08T15:31:45.913Z,10.94
2023-04-08T15:34:12.920Z,10.86
2023-04-08T15:36:39.983Z,10.79
2023-04-08T15:39:07.049Z,10.73
2023-04-08T15:41:33.926Z,10.68
2023-04-08T15:44:01.134Z,10.61
2023-04-08T15:46:28.023Z,10.55
2023-04-08T15:48:55.204Z,10.48
2023-04-08T15:51:22.370Z,10.43
2023-04-08T15:53:51.576Z,10.38
2023-04-08T15:56:18.792Z,10.33
2023-04-08T15:58:46.217Z,10.28
2023-04-08T16:01:13.488Z,10.22
2023-04-08T16:03:41.124Z,10.20
2023-04-08T16:06:08.713Z,10.13
2023-04-08T16:08:35.805Z,10.09
2023-04-08T16:11:04.025Z,10.05
2023-04-08T16:13:31.024Z,10.01
2023-04-08T16:15:58.726Z,9.98
2023-04-08T16:18:26.117Z,9.97
2023-04-08T16:20:53.325Z,9.93
2023-04-08T16:23:20.661Z,9.86
2023-04-08T16:25:47.673Z,9.80
2023-04-08T16:28:14.657Z,9.75
2023-04-08T16:30:44.419Z,9.69
2023-04-08T16:33:11.515Z,9.67
2023-04-08T16:35:38.687Z,9.65
2023-04-08T16:38:06.311Z,9.62
2023-04-08T16:40:33.708Z,9.60
2023-04-08T16:43:01.280Z,9.55
2023-04-08T16:45:29.601Z,9.53
2023-04-08T16:47:57.020Z,9.50
2023-04-08T16:50:24.146Z,9.46
2023-04-08T16:52:51.156Z,9.38
2023-04-08T16:55:18.370Z,9.33
2023-04-08T16:57:45.758Z,9.30
2023-04-08T17:00:13.210Z,9.24
2023-04-08T17:02:40.513Z,9.22
2023-04-08T17:05:08.142Z,9.18
2023-04-08T17:07:35.123Z,9.14
2023-04-08T17:10:02.292Z,9.09
2023-04-08T17:12:30.491Z,9.02
2023-04-08T17:14:57.417Z,8.95
2023-04-08T17:17:24.418Z,8.87
2023-04-08T17:19:51.992Z,8.83
2023-04-08T17:22:18.968Z,8.77
2023-04-08T17:24:47.870Z,8.73
2023-04-08T17:27:15.157Z,8.72
2023-04-08T17:29:42.096Z,8.68
2023-04-08T17:32:09.192Z,8.63
2023-04-08T17:34:37.102Z,8.57
2023-04-08T17:37:05.356Z,8.52
2023-04-08T17:39:32.422Z,8.47
2023-04-08T17:41:59.528Z,8.44
2023-04-08T17:44:30.050Z,8.39
2023-04-08T17:46:57.444Z,8.43
2023-04-08T17:49:24.513Z,8.35
2023-04-08T17:51:51.489Z,8.29
2023-04-08T17:54:18.527Z,8.22
2023-04-08T17:56:46.691Z,8.17
2023-04-08T17:59:15.418Z,8.12
2023-04-08T18:01:42.490Z,8.09
2023-04-08T18:04:10.568Z,8.05
2023-04-08T18:06:37.645Z,8.02
2023-04-08T18:09:04.718Z,7.99
2023-04-08T18:11:31.749Z,7.96
2023-04-08T18:13:58.819Z,7.91
2023-04-08T18:16:25.762Z,7.90
2023-04-08T18:18:54.111Z,7.89
2023-04-08T18:21:22.139Z,7.83
2023-04-08T18:23:49.853Z,7.82
2023-04-08T18:26:17.286Z,7.80
2023-04-08T18:28:44.414Z,7.77
2023-04-08T18:31:11.390Z,7.75
2023-04-08T18:33:39.256Z,7.70
2023-04-08T18:36:10.563Z,7.64
2023-04-08T18:38:38.168Z,7.62
2023-04-08T18:41:05.910Z,7.58
2023-04-08T18:43:33.329Z,7.49
2023-04-08T18:46:00.474Z,7.46
2023-04-08T18:48:27.490Z,7.41
2023-04-08T18:50:54.621Z,7.37
2023-04-08T18:53:22.752Z,7.34
2023-04-08T18:55:51.296Z,7.30
2023-04-08T18:58:18.344Z,7.25
2023-04-08T19:00:45.564Z,7.20
2023-04-08T19:03:12.761Z,7.18
2023-04-08T19:05:39.860Z,7.15
2023-04-08T19:08:06.802Z,7.12
2023-04-08T19:10:33.897Z,7.04
2023-04-08T19:13:01.397Z,7.01
2023-04-08T19:15:31.143Z,7.00
2023-04-08T19:17:59.076Z,6.95
2023-04-08T19:20:27.322Z,6.88
2023-04-08T19:22:55.964Z,6.78
2023-04-08T19:25:22.987Z,6.72
2023-04-08T19:27:49.953Z,6.67
2023-04-08T19:30:16.863Z,6.59
2023-04-08T19:32:44.001Z,6.52
2023-04-08T19:35:14.012Z,6.43
2023-04-08T19:37:41.172Z,6.36
2023-04-08T19:40:08.653Z,6.30
2023-04-08T19:42:36.476Z,6.26
2023-04-08T19:45:03.873Z,6.20
2023-04-08T19:47:30.933Z,6.17
2023-04-08T19:49:58.422Z,6.14
2023-04-08T19:52:25.833Z,6.12
2023-04-08T19:54:53.289Z,6.08
2023-04-08T19:57:20.675Z,6.02
2023-04-08T19:59:50.604Z,5.98
2023-04-08T20:02:17.760Z,5.99
2023-04-08T20:04:45.669Z,5.97
2023-04-08T20:07:13.305Z,5.89
2023-04-08T20:09:40.572Z,5.83
2023-04-08T20:12:07.495Z,5.74
2023-04-08T20:14:35.969Z,5.71
2023-04-08T20:17:03.210Z,5.68
2023-04-08T20:19:30.558Z,5.67
2023-04-08T20:21:57.827Z,5.61
2023-04-08T20:24:24.865Z,5.57
2023-04-08T20:26:52.563Z,5.52
2023-04-08T20:29:19.578Z,5.48
2023-04-08T20:31:46.994Z,5.46
2023-04-08T20:34:14.104Z,5.43
2023-04-08T20:36:41.252Z,5.40
2023-04-08T20:39:12.018Z,5.40
2023-04-08T20:41:39.041Z,5.42
2023-04-08T20:44:10.653Z,5.39
2023-04-08T20:46:38.192Z,5.39
2023-04-08T20:49:05.531Z,5.40
2023-04-08T20:51:35.232Z,5.40
2023-04-08T20:54:02.473Z,5.41
2023-04-08T20:56:29.690Z,5.39
2023-04-08T20:58:59.692Z,5.33
2023-04-08T21:01:27.494Z,5.27
2023-04-08T21:03:54.836Z,5.24
2023-04-08T21:06:22.136Z,5.20
2023-04-08T21:08:49.783Z,5.14
2023-04-08T21:11:17.184Z,5.15
2023-04-08T21:13:45.536Z,5.16
2023-04-08T21:16:14.354Z,5.21
2023-04-08T21:18:41.336Z,5.27
2023-04-08T21:21:10.066Z,5.40
2023-04-08T21:23:37.064Z,5.51
2023-04-08T21:26:04.151Z,5.62
2023-04-08T21:28:31.353Z,5.72
2023-04-08T21:31:08.098Z,5.78
2023-04-08T21:33:35.176Z,5.66
2023-04-08T21:36:02.404Z,5.59
2023-04-08T21:38:29.426Z,5.61
2023-04-08T21:40:56.421Z,5.75
2023-04-08T21:43:23.440Z,5.81
2023-04-08T21:45:50.386Z,5.81
2023-04-08T21:48:17.355Z,5.71
2023-04-08T21:50:45.648Z,5.60
2023-04-08T21:53:12.641Z,5.54
2023-04-08T21:55:39.502Z,5.52
2023-04-08T21:58:06.487Z,5.56
2023-04-08T22:00:33.552Z,5.64
2023-04-08T22:03:00.650Z,5.70
2023-04-08T22:05:27.793Z,5.69
2023-04-08T22:07:55.035Z,5.72
2023-04-08T22:10:22.041Z,5.72
2023-04-08T22:12:48.967Z,5.71
2023-04-08T22:15:15.853Z,5.68
2023-04-08T22:17:42.981Z,5.70
2023-04-08T22:20:10.634Z,5.71
2023-04-08T22:22:37.726Z,5.66
2023-04-08T22:25:05.352Z,5.53
2023-04-08T22:27:32.359Z,5.44
2023-04-08T22:29:59.366Z,5.42
2023-04-08T22:32:26.558Z,5.43
2023-04-08T22:34:53.436Z,5.42
2023-04-08T22:37:20.438Z,5.40
2023-04-08T22:39:47.457Z,5.26
2023-04-08T22:42:14.395Z,5.12
2023-04-08T22:44:41.436Z,5.11
2023-04-08T22:47:08.302Z,5.16
2023-04-08T22:49:35.596Z,5.14
2023-04-08T22:52:02.523Z,5.02
2023-04-08T22:54:29.421Z,4.87
2023-04-08T22:56:56.677Z,4.83
2023-04-08T22:59:23.663Z,4.85
2023-04-08T23:01:50.818Z,4.87
2023-04-08T23:04:17.897Z,4.81
2023-04-08T23:06:44.861Z,4.79
2023-04-08T23:09:11.860Z,4.75
2023-04-08T23:11:38.883Z,4.73
2023-04-08T23:14:05.954Z,4.75
2023-04-08T23:16:33.039Z,4.85
2023-04-08T23:19:00.010Z,4.95
2023-04-08T23:21:27.124Z,5.05
2023-04-08T23:23:54.101Z,5.11
2023-04-08T23:26:21.319Z,5.17
2023-04-08T23:28:48.246Z,5.21
2023-04-08T23:31:15.450Z,5.24
2023-04-08T23:33:42.516Z,5.17
2023-04-08T23:36:12.858Z,5.01
2023-04-08T23:38:39.935Z,4.90
2023-04-08T23:41:07.037Z,4.80
2023-04-08T23:43:34.309Z,4.69
2023-04-08T23:46:01.291Z,4.70
2023-04-08T23:48:28.204Z,4.76
2023-04-08T23:50:55.287Z,4.82
2023-04-08T23:53:22.239Z,4.85
2023-04-08T23:55:49.162Z,4.85
2023-04-08T23:58:16.321Z,4.89
